sensor_id;sensor_type;location;lat;lon;timestamp;P1;durP1;ratioP1;P2;durP2;ratioP2
15871;SDS011;8035;51.962;7.162;2023-09-19T00:01:14;8.23;;;2.30;;
15871;SDS011;8035;51.962;7.162;2023-09-19T00:03:40;7.33;;;2.70;;
15871;SDS011;8035;51.962;7.162;2023-09-19T00:06:06;9.37;;;2.67;;
15871;SDS011;8035;51.962;7.162;2023-09-19T00:08:32;14.93;;;3.70;;
15871;SDS011;8035;51.962;7.162;2023-09-19T00:11:01;6.40;;;2.73;;
15871;SDS011;8035;51.962;7.162;2023-09-19T00:13:31;9.33;;;2.60;;
15871;SDS011;8035;51.962;7.162;2023-09-19T00:15:57;9.17;;;2.57;;
15871;SDS011;8035;51.962;7.162;2023-09-19T00:18:24;10.57;;;2.93;;
15871;SDS011;8035;51.962;7.162;2023-09-19T00:20:56;8.80;;;3.70;;
15871;SDS011;8035;51.962;7.162;2023-09-19T00:23:22;10.90;;;2.80;;
15871;SDS011;8035;51.962;7.162;2023-09-19T00:25:49;9.47;;;2.93;;
15871;SDS011;8035;51.962;7.162;2023-09-19T00:28:16;6.00;;;2.53;;
15871;SDS011;8035;51.962;7.162;2023-09-19T00:30:43;9.60;;;2.60;;
15871;SDS011;8035;51.962;7.162;2023-09-19T00:33:10;8.57;;;2.80;;
15871;SDS011;8035;51.962;7.162;2023-09-19T00:35:46;7.07;;;3.00;;
15871;SDS011;8035;51.962;7.162;2023-09-19T00:38:15;6.00;;;2.70;;
15871;SDS011;8035;51.962;7.162;2023-09-19T00:40:45;8.17;;;3.10;;
15871;SDS011;8035;51.962;7.162;2023-09-19T00:43:11;17.93;;;3.23;;
15871;SDS011;8035;51.962;7.162;2023-09-19T00:45:37;8.73;;;2.97;;
15871;SDS011;8035;51.962;7.162;2023-09-19T00:48:03;9.77;;;2.67;;
15871;SDS011;8035;51.962;7.162;2023-09-19T00:50:31;8.57;;;2.80;;
15871;SDS011;8035;51.962;7.162;2023-09-19T00:52:57;9.00;;;2.70;;
15871;SDS011;8035;51.962;7.162;2023-09-19T00:55:24;9.73;;;2.93;;
15871;SDS011;8035;51.962;7.162;2023-09-19T00:57:50;12.73;;;3.53;;
15871;SDS011;8035;51.962;7.162;2023-09-19T01:00:17;12.80;;;3.23;;
15871;SDS011;8035;51.962;7.162;2023-09-19T01:02:45;9.77;;;3.27;;
15871;SDS011;8035;51.962;7.162;2023-09-19T01:05:11;10.03;;;3.23;;
15871;SDS011;8035;51.962;7.162;2023-09-19T01:07:37;11.17;;;2.87;;
15871;SDS011;8035;51.962;7.162;2023-09-19T01:10:07;9.70;;;3.13;;
15871;SDS011;8035;51.962;7.162;2023-09-19T01:12:46;13.63;;;3.93;;
15871;SDS011;8035;51.962;7.162;2023-09-19T01:16:07;12.67;;;3.07;;
15871;SDS011;8035;51.962;7.162;2023-09-19T01:18:21;9.63;;;3.30;;
15871;SDS011;8035;51.962;7.162;2023-09-19T01:24:04;11.97;;;3.83;;
15871;SDS011;8035;51.962;7.162;2023-09-19T01:29:34;8.83;;;2.90;;
15871;SDS011;8035;51.962;7.162;2023-09-19T01:32:05;9.10;;;3.13;;
15871;SDS011;8035;51.962;7.162;2023-09-19T01:37:22;12.83;;;3.53;;
15871;SDS011;8035;51.962;7.162;2023-09-19T01:39:53;9.93;;;3.50;;
15871;SDS011;8035;51.962;7.162;2023-09-19T01:45:36;7.93;;;2.80;;
15871;SDS011;8035;51.962;7.162;2023-09-19T01:51:00;11.47;;;3.63;;
15871;SDS011;8035;51.962;7.162;2023-09-19T01:53:43;11.07;;;3.20;;
15871;SDS011;8035;51.962;7.162;2023-09-19T01:56:12;13.00;;;3.73;;
15871;SDS011;8035;51.962;7.162;2023-09-19T01:58:56;8.20;;;2.90;;
15871;SDS011;8035;51.962;7.162;2023-09-19T02:01:25;10.37;;;3.07;;
15871;SDS011;8035;51.962;7.162;2023-09-19T02:03:51;14.33;;;3.30;;
15871;SDS011;8035;51.962;7.162;2023-09-19T02:06:19;10.90;;;3.60;;
15871;SDS011;8035;51.962;7.162;2023-09-19T02:08:46;7.77;;;2.70;;
15871;SDS011;8035;51.962;7.162;2023-09-19T02:11:12;11.43;;;3.17;;
15871;SDS011;8035;51.962;7.162;2023-09-19T02:13:41;7.33;;;2.87;;
15871;SDS011;8035;51.962;7.162;2023-09-19T02:16:07;12.93;;;3.03;;
15871;SDS011;8035;51.962;7.162;2023-09-19T02:18:34;9.63;;;2.70;;
15871;SDS011;8035;51.962;7.162;2023-09-19T02:21:00;13.13;;;3.30;;
15871;SDS011;8035;51.962;7.162;2023-09-19T02:23:26;11.00;;;3.10;;
15871;SDS011;8035;51.962;7.162;2023-09-19T02:25:53;7.13;;;3.30;;
15871;SDS011;8035;51.962;7.162;2023-09-19T02:28:19;5.93;;;2.43;;
15871;SDS011;8035;51.962;7.162;2023-09-19T02:30:47;10.53;;;2.83;;
15871;SDS011;8035;51.962;7.162;2023-09-19T02:33:13;10.73;;;3.10;;
15871;SDS011;8035;51.962;7.162;2023-09-19T02:35:39;8.43;;;3.10;;
15871;SDS011;8035;51.962;7.162;2023-09-19T02:38:05;12.00;;;3.37;;
15871;SDS011;8035;51.962;7.162;2023-09-19T02:40:32;10.87;;;3.13;;
15871;SDS011;8035;51.962;7.162;2023-09-19T02:43:00;12.43;;;2.87;;
15871;SDS011;8035;51.962;7.162;2023-09-19T02:45:27;10.60;;;2.97;;
15871;SDS011;8035;51.962;7.162;2023-09-19T02:47:52;10.47;;;3.07;;
15871;SDS011;8035;51.962;7.162;2023-09-19T02:50:19;11.20;;;3.17;;
15871;SDS011;8035;51.962;7.162;2023-09-19T02:52:45;7.67;;;2.57;;
15871;SDS011;8035;51.962;7.162;2023-09-19T02:55:15;11.93;;;3.10;;
15871;SDS011;8035;51.962;7.162;2023-09-19T03:00:14;11.53;;;2.90;;
15871;SDS011;8035;51.962;7.162;2023-09-19T03:02:40;10.17;;;2.80;;
15871;SDS011;8035;51.962;7.162;2023-09-19T03:05:07;9.67;;;3.27;;
15871;SDS011;8035;51.962;7.162;2023-09-19T03:07:33;9.63;;;3.20;;
15871;SDS011;8035;51.962;7.162;2023-09-19T03:09:59;10.93;;;3.37;;
15871;SDS011;8035;51.962;7.162;2023-09-19T03:12:25;10.23;;;3.00;;
15871;SDS011;8035;51.962;7.162;2023-09-19T03:14:51;9.20;;;2.77;;
15871;SDS011;8035;51.962;7.162;2023-09-19T03:17:17;9.90;;;3.07;;
15871;SDS011;8035;51.962;7.162;2023-09-19T03:19:44;10.23;;;3.17;;
15871;SDS011;8035;51.962;7.162;2023-09-19T03:22:10;10.50;;;3.23;;
15871;SDS011;8035;51.962;7.162;2023-09-19T03:24:36;11.40;;;3.20;;
15871;SDS011;8035;51.962;7.162;2023-09-19T03:27:02;7.47;;;2.63;;
15871;SDS011;8035;51.962;7.162;2023-09-19T03:29:28;9.93;;;2.70;;
15871;SDS011;8035;51.962;7.162;2023-09-19T03:31:54;7.90;;;3.03;;
15871;SDS011;8035;51.962;7.162;2023-09-19T03:34:19;8.30;;;2.80;;
15871;SDS011;8035;51.962;7.162;2023-09-19T03:36:45;11.03;;;2.80;;
15871;SDS011;8035;51.962;7.162;2023-09-19T03:39:11;9.10;;;2.80;;
15871;SDS011;8035;51.962;7.162;2023-09-19T03:41:37;10.83;;;3.00;;
15871;SDS011;8035;51.962;7.162;2023-09-19T03:44:03;6.37;;;2.87;;
15871;SDS011;8035;51.962;7.162;2023-09-19T03:46:29;11.40;;;3.13;;
15871;SDS011;8035;51.962;7.162;2023-09-19T03:48:55;11.83;;;3.40;;
15871;SDS011;8035;51.962;7.162;2023-09-19T03:51:20;13.70;;;3.83;;
15871;SDS011;8035;51.962;7.162;2023-09-19T03:53:46;6.97;;;2.30;;
15871;SDS011;8035;51.962;7.162;2023-09-19T03:56:14;10.23;;;2.97;;
15871;SDS011;8035;51.962;7.162;2023-09-19T03:58:39;14.47;;;3.27;;
15871;SDS011;8035;51.962;7.162;2023-09-19T04:01:05;9.23;;;2.63;;
15871;SDS011;8035;51.962;7.162;2023-09-19T04:03:34;6.57;;;2.70;;
15871;SDS011;8035;51.962;7.162;2023-09-19T04:06:11;8.93;;;2.70;;
15871;SDS011;8035;51.962;7.162;2023-09-19T04:08:40;8.30;;;2.53;;
15871;SDS011;8035;51.962;7.162;2023-09-19T04:11:06;11.33;;;2.93;;
15871;SDS011;8035;51.962;7.162;2023-09-19T04:13:32;8.07;;;3.00;;
15871;SDS011;8035;51.962;7.162;2023-09-19T04:15:57;6.60;;;2.43;;
15871;SDS011;8035;51.962;7.162;2023-09-19T04:18:23;14.63;;;3.40;;
15871;SDS011;8035;51.962;7.162;2023-09-19T04:20:49;9.50;;;2.70;;
15871;SDS011;8035;51.962;7.162;2023-09-19T04:23:15;10.17;;;2.83;;
15871;SDS011;8035;51.962;7.162;2023-09-19T04:25:41;7.10;;;2.53;;
15871;SDS011;8035;51.962;7.162;2023-09-19T04:28:08;9.23;;;2.50;;
15871;SDS011;8035;51.962;7.162;2023-09-19T04:30:35;9.50;;;2.47;;
15871;SDS011;8035;51.962;7.162;2023-09-19T04:33:01;9.30;;;2.40;;
15871;SDS011;8035;51.962;7.162;2023-09-19T04:35:27;9.97;;;2.77;;
15871;SDS011;8035;51.962;7.162;2023-09-19T04:37:56;9.67;;;2.80;;
15871;SDS011;8035;51.962;7.162;2023-09-19T04:40:22;6.73;;;2.60;;
15871;SDS011;8035;51.962;7.162;2023-09-19T04:42:56;12.63;;;2.37;;
15871;SDS011;8035;51.962;7.162;2023-09-19T04:45:22;11.40;;;3.13;;
15871;SDS011;8035;51.962;7.162;2023-09-19T04:47:54;8.27;;;2.43;;
15871;SDS011;8035;51.962;7.162;2023-09-19T04:50:21;7.93;;;2.53;;
15871;SDS011;8035;51.962;7.162;2023-09-19T04:52:51;10.10;;;2.83;;
15871;SDS011;8035;51.962;7.162;2023-09-19T04:55:17;9.00;;;2.77;;
15871;SDS011;8035;51.962;7.162;2023-09-19T04:57:47;7.60;;;2.87;;
15871;SDS011;8035;51.962;7.162;2023-09-19T05:00:14;7.60;;;2.53;;
15871;SDS011;8035;51.962;7.162;2023-09-19T05:02:42;7.67;;;2.20;;
15871;SDS011;8035;51.962;7.162;2023-09-19T05:05:08;6.20;;;2.47;;
15871;SDS011;8035;51.962;7.162;2023-09-19T05:07:39;10.17;;;2.90;;
15871;SDS011;8035;51.962;7.162;2023-09-19T05:10:06;14.20;;;2.93;;
15871;SDS011;8035;51.962;7.162;2023-09-19T05:12:35;7.63;;;2.87;;
15871;SDS011;8035;51.962;7.162;2023-09-19T05:15:04;10.67;;;2.47;;
15871;SDS011;8035;51.962;7.162;2023-09-19T05:17:34;8.07;;;2.33;;
15871;SDS011;8035;51.962;7.162;2023-09-19T05:20:00;11.13;;;2.43;;
15871;SDS011;8035;51.962;7.162;2023-09-19T05:22:40;7.47;;;2.70;;
15871;SDS011;8035;51.962;7.162;2023-09-19T05:25:08;9.03;;;2.53;;
15871;SDS011;8035;51.962;7.162;2023-09-19T05:27:34;10.83;;;2.57;;
15871;SDS011;8035;51.962;7.162;2023-09-19T05:29:59;9.93;;;2.73;;
15871;SDS011;8035;51.962;7.162;2023-09-19T05:32:25;6.53;;;2.23;;
15871;SDS011;8035;51.962;7.162;2023-09-19T05:34:50;9.10;;;2.67;;
15871;SDS011;8035;51.962;7.162;2023-09-19T05:37:21;8.77;;;2.40;;
15871;SDS011;8035;51.962;7.162;2023-09-19T05:39:48;9.57;;;2.37;;
15871;SDS011;8035;51.962;7.162;2023-09-19T05:42:14;8.00;;;2.10;;
15871;SDS011;8035;51.962;7.162;2023-09-19T05:44:39;7.90;;;2.70;;
15871;SDS011;8035;51.962;7.162;2023-09-19T05:47:05;6.63;;;2.30;;
15871;SDS011;8035;51.962;7.162;2023-09-19T05:49:33;8.77;;;2.80;;
15871;SDS011;8035;51.962;7.162;2023-09-19T05:52:03;10.97;;;2.50;;
15871;SDS011;8035;51.962;7.162;2023-09-19T05:54:32;6.67;;;2.40;;
15871;SDS011;8035;51.962;7.162;2023-09-19T05:56:59;10.07;;;2.60;;
15871;SDS011;8035;51.962;7.162;2023-09-19T05:59:26;6.43;;;2.23;;
15871;SDS011;8035;51.962;7.162;2023-09-19T06:01:52;7.00;;;2.23;;
15871;SDS011;8035;51.962;7.162;2023-09-19T06:04:18;7.87;;;2.20;;
15871;SDS011;8035;51.962;7.162;2023-09-19T06:06:44;8.93;;;2.80;;
15871;SDS011;8035;51.962;7.162;2023-09-19T06:09:14;15.03;;;2.67;;
15871;SDS011;8035;51.962;7.162;2023-09-19T06:11:43;6.47;;;2.37;;
15871;SDS011;8035;51.962;7.162;2023-09-19T06:14:08;7.63;;;2.40;;
15871;SDS011;8035;51.962;7.162;2023-09-19T06:16:35;7.87;;;2.40;;
15871;SDS011;8035;51.962;7.162;2023-09-19T06:19:01;8.90;;;2.60;;
15871;SDS011;8035;51.962;7.162;2023-09-19T06:21:27;6.00;;;2.30;;
15871;SDS011;8035;51.962;7.162;2023-09-19T06:23:53;9.80;;;2.37;;
15871;SDS011;8035;51.962;7.162;2023-09-19T06:26:19;6.20;;;2.10;;
15871;SDS011;8035;51.962;7.162;2023-09-19T06:28:45;4.90;;;2.07;;
15871;SDS011;8035;51.962;7.162;2023-09-19T06:31:10;7.23;;;2.40;;
15871;SDS011;8035;51.962;7.162;2023-09-19T06:33:36;8.33;;;2.07;;
15871;SDS011;8035;51.962;7.162;2023-09-19T06:36:05;11.03;;;2.50;;
15871;SDS011;8035;51.962;7.162;2023-09-19T06:38:31;12.00;;;2.40;;
15871;SDS011;8035;51.962;7.162;2023-09-19T06:40:59;8.70;;;2.30;;
15871;SDS011;8035;51.962;7.162;2023-09-19T06:43:26;5.73;;;2.07;;
15871;SDS011;8035;51.962;7.162;2023-09-19T06:45:52;7.83;;;2.43;;
15871;SDS011;8035;51.962;7.162;2023-09-19T06:48:19;8.57;;;2.30;;
15871;SDS011;8035;51.962;7.162;2023-09-19T06:50:46;6.93;;;2.50;;
15871;SDS011;8035;51.962;7.162;2023-09-19T06:53:13;7.20;;;2.57;;
15871;SDS011;8035;51.962;7.162;2023-09-19T06:55:39;12.73;;;2.60;;
15871;SDS011;8035;51.962;7.162;2023-09-19T06:58:05;7.13;;;2.73;;
15871;SDS011;8035;51.962;7.162;2023-09-19T07:00:31;5.40;;;2.33;;
15871;SDS011;8035;51.962;7.162;2023-09-19T07:05:35;8.47;;;2.80;;
15871;SDS011;8035;51.962;7.162;2023-09-19T07:08:02;11.37;;;2.67;;
15871;SDS011;8035;51.962;7.162;2023-09-19T07:10:28;7.53;;;2.47;;
15871;SDS011;8035;51.962;7.162;2023-09-19T07:15:27;5.50;;;2.60;;
15871;SDS011;8035;51.962;7.162;2023-09-19T07:17:53;8.60;;;2.40;;
15871;SDS011;8035;51.962;7.162;2023-09-19T07:20:21;9.13;;;2.67;;
15871;SDS011;8035;51.962;7.162;2023-09-19T07:22:48;7.90;;;3.13;;
15871;SDS011;8035;51.962;7.162;2023-09-19T07:25:15;7.93;;;2.60;;
15871;SDS011;8035;51.962;7.162;2023-09-19T07:27:41;10.17;;;2.40;;
15871;SDS011;8035;51.962;7.162;2023-09-19T07:30:08;7.83;;;2.70;;
15871;SDS011;8035;51.962;7.162;2023-09-19T07:32:34;5.73;;;2.70;;
15871;SDS011;8035;51.962;7.162;2023-09-19T07:35:01;11.87;;;2.27;;
15871;SDS011;8035;51.962;7.162;2023-09-19T07:37:29;8.40;;;2.73;;
15871;SDS011;8035;51.962;7.162;2023-09-19T07:39:58;10.57;;;3.03;;
15871;SDS011;8035;51.962;7.162;2023-09-19T07:42:34;9.90;;;2.63;;
15871;SDS011;8035;51.962;7.162;2023-09-19T07:45:01;5.87;;;2.50;;
15871;SDS011;8035;51.962;7.162;2023-09-19T07:47:28;7.70;;;2.67;;
15871;SDS011;8035;51.962;7.162;2023-09-19T07:49:55;14.13;;;2.90;;
15871;SDS011;8035;51.962;7.162;2023-09-19T07:52:21;5.13;;;2.33;;
15871;SDS011;8035;51.962;7.162;2023-09-19T07:54:47;8.53;;;2.70;;
15871;SDS011;8035;51.962;7.162;2023-09-19T07:57:14;8.63;;;2.53;;
15871;SDS011;8035;51.962;7.162;2023-09-19T07:59:41;7.43;;;2.53;;
15871;SDS011;8035;51.962;7.162;2023-09-19T08:02:07;12.37;;;2.70;;
15871;SDS011;8035;51.962;7.162;2023-09-19T08:04:34;9.13;;;3.20;;
15871;SDS011;8035;51.962;7.162;2023-09-19T08:07:00;10.03;;;3.10;;
15871;SDS011;8035;51.962;7.162;2023-09-19T08:09:28;7.00;;;2.57;;
15871;SDS011;8035;51.962;7.162;2023-09-19T08:11:58;7.60;;;2.50;;
15871;SDS011;8035;51.962;7.162;2023-09-19T08:14:24;10.50;;;2.73;;
15871;SDS011;8035;51.962;7.162;2023-09-19T08:16:51;6.20;;;2.60;;
15871;SDS011;8035;51.962;7.162;2023-09-19T08:19:16;15.20;;;3.13;;
15871;SDS011;8035;51.962;7.162;2023-09-19T08:21:42;7.50;;;2.90;;
15871;SDS011;8035;51.962;7.162;2023-09-19T08:24:12;7.67;;;2.63;;
15871;SDS011;8035;51.962;7.162;2023-09-19T08:26:39;9.13;;;2.73;;
15871;SDS011;8035;51.962;7.162;2023-09-19T08:29:04;9.03;;;2.73;;
15871;SDS011;8035;51.962;7.162;2023-09-19T08:31:32;13.00;;;3.70;;
15871;SDS011;8035;51.962;7.162;2023-09-19T08:33:58;9.23;;;2.77;;
15871;SDS011;8035;51.962;7.162;2023-09-19T08:36:24;9.47;;;3.23;;
15871;SDS011;8035;51.962;7.162;2023-09-19T08:38:50;6.33;;;2.50;;
15871;SDS011;8035;51.962;7.162;2023-09-19T08:41:16;8.30;;;2.70;;
15871;SDS011;8035;51.962;7.162;2023-09-19T08:43:42;6.67;;;2.60;;
15871;SDS011;8035;51.962;7.162;2023-09-19T08:46:12;7.83;;;2.53;;
15871;SDS011;8035;51.962;7.162;2023-09-19T08:48:45;7.60;;;2.33;;
15871;SDS011;8035;51.962;7.162;2023-09-19T08:51:26;10.57;;;3.00;;
15871;SDS011;8035;51.962;7.162;2023-09-19T08:54:08;7.70;;;2.60;;
15871;SDS011;8035;51.962;7.162;2023-09-19T08:56:38;7.57;;;2.77;;
15871;SDS011;8035;51.962;7.162;2023-09-19T08:59:05;8.73;;;2.57;;
15871;SDS011;8035;51.962;7.162;2023-09-19T09:01:34;9.50;;;2.73;;
15871;SDS011;8035;51.962;7.162;2023-09-19T09:04:01;10.10;;;2.33;;
15871;SDS011;8035;51.962;7.162;2023-09-19T09:06:27;9.03;;;2.40;;
15871;SDS011;8035;51.962;7.162;2023-09-19T09:08:54;10.90;;;2.80;;
15871;SDS011;8035;51.962;7.162;2023-09-19T09:11:20;9.03;;;3.27;;
15871;SDS011;8035;51.962;7.162;2023-09-19T09:13:47;9.53;;;2.80;;
15871;SDS011;8035;51.962;7.162;2023-09-19T09:16:13;9.17;;;3.50;;
15871;SDS011;8035;51.962;7.162;2023-09-19T09:18:42;9.70;;;2.83;;
15871;SDS011;8035;51.962;7.162;2023-09-19T09:21:09;10.63;;;2.93;;
15871;SDS011;8035;51.962;7.162;2023-09-19T09:23:35;9.87;;;2.97;;
15871;SDS011;8035;51.962;7.162;2023-09-19T09:26:01;11.50;;;2.97;;
15871;SDS011;8035;51.962;7.162;2023-09-19T09:28:31;7.00;;;2.40;;
15871;SDS011;8035;51.962;7.162;2023-09-19T09:30:58;6.47;;;2.63;;
15871;SDS011;8035;51.962;7.162;2023-09-19T09:33:25;9.10;;;2.73;;
15871;SDS011;8035;51.962;7.162;2023-09-19T09:35:51;6.70;;;2.83;;
15871;SDS011;8035;51.962;7.162;2023-09-19T09:38:20;7.47;;;2.70;;
15871;SDS011;8035;51.962;7.162;2023-09-19T09:40:52;8.00;;;2.80;;
15871;SDS011;8035;51.962;7.162;2023-09-19T09:46:15;7.87;;;2.60;;
15871;SDS011;8035;51.962;7.162;2023-09-19T09:48:46;7.90;;;2.53;;
15871;SDS011;8035;51.962;7.162;2023-09-19T09:51:33;6.93;;;2.17;;
15871;SDS011;8035;51.962;7.162;2023-09-19T09:54:10;9.93;;;2.97;;
15871;SDS011;8035;51.962;7.162;2023-09-19T09:56:54;8.60;;;2.93;;
15871;SDS011;8035;51.962;7.162;2023-09-19T09:59:45;10.83;;;3.17;;
15871;SDS011;8035;51.962;7.162;2023-09-19T10:02:27;8.53;;;3.03;;
15871;SDS011;8035;51.962;7.162;2023-09-19T10:07:53;7.10;;;3.03;;
15871;SDS011;8035;51.962;7.162;2023-09-19T10:10:34;12.23;;;2.70;;
15871;SDS011;8035;51.962;7.162;2023-09-19T10:13:07;6.43;;;2.57;;
15871;SDS011;8035;51.962;7.162;2023-09-19T10:15:37;9.87;;;2.77;;
15871;SDS011;8035;51.962;7.162;2023-09-19T10:18:04;6.77;;;2.40;;
15871;SDS011;8035;51.962;7.162;2023-09-19T10:20:33;12.93;;;3.20;;
15871;SDS011;8035;51.962;7.162;2023-09-19T10:23:04;9.73;;;3.03;;
15871;SDS011;8035;51.962;7.162;2023-09-19T10:25:37;12.20;;;3.07;;
15871;SDS011;8035;51.962;7.162;2023-09-19T10:28:11;12.40;;;3.07;;
15871;SDS011;8035;51.962;7.162;2023-09-19T10:30:40;11.27;;;2.90;;
15871;SDS011;8035;51.962;7.162;2023-09-19T10:33:10;10.37;;;3.03;;
15871;SDS011;8035;51.962;7.162;2023-09-19T10:35:38;10.30;;;2.77;;
15871;SDS011;8035;51.962;7.162;2023-09-19T10:38:06;8.67;;;3.23;;
15871;SDS011;8035;51.962;7.162;2023-09-19T10:40:34;8.67;;;2.87;;
15871;SDS011;8035;51.962;7.162;2023-09-19T10:43:04;9.87;;;2.67;;
15871;SDS011;8035;51.962;7.162;2023-09-19T10:45:31;6.93;;;2.50;;
15871;SDS011;8035;51.962;7.162;2023-09-19T10:48:03;10.77;;;3.07;;
15871;SDS011;8035;51.962;7.162;2023-09-19T10:50:32;8.60;;;3.43;;
15871;SDS011;8035;51.962;7.162;2023-09-19T10:53:02;10.40;;;2.57;;
15871;SDS011;8035;51.962;7.162;2023-09-19T10:55:32;6.90;;;2.90;;
15871;SDS011;8035;51.962;7.162;2023-09-19T10:58:00;9.43;;;3.43;;
15871;SDS011;8035;51.962;7.162;2023-09-19T11:00:28;9.43;;;2.50;;
15871;SDS011;8035;51.962;7.162;2023-09-19T11:05:40;9.20;;;3.43;;
15871;SDS011;8035;51.962;7.162;2023-09-19T11:08:07;6.97;;;2.43;;
15871;SDS011;8035;51.962;7.162;2023-09-19T11:10:46;6.97;;;2.70;;
15871;SDS011;8035;51.962;7.162;2023-09-19T11:13:29;7.97;;;3.00;;
15871;SDS011;8035;51.962;7.162;2023-09-19T11:16:02;9.00;;;3.20;;
15871;SDS011;8035;51.962;7.162;2023-09-19T11:24:38;8.57;;;2.57;;
15871;SDS011;8035;51.962;7.162;2023-09-19T11:26:47;6.47;;;2.60;;
15871;SDS011;8035;51.962;7.162;2023-09-19T11:31:58;8.30;;;2.70;;
15871;SDS011;8035;51.962;7.162;2023-09-19T11:37:02;7.43;;;2.13;;
15871;SDS011;8035;51.962;7.162;2023-09-19T11:40:24;8.80;;;3.23;;
15871;SDS011;8035;51.962;7.162;2023-09-19T11:48:22;3.97;;;2.17;;
15871;SDS011;8035;51.962;7.162;2023-09-19T11:50:50;8.83;;;3.00;;
15871;SDS011;8035;51.962;7.162;2023-09-19T11:53:17;6.20;;;2.20;;
15871;SDS011;8035;51.962;7.162;2023-09-19T11:55:44;6.47;;;2.23;;
15871;SDS011;8035;51.962;7.162;2023-09-19T11:58:11;5.03;;;2.03;;
15871;SDS011;8035;51.962;7.162;2023-09-19T12:00:40;9.07;;;3.07;;
15871;SDS011;8035;51.962;7.162;2023-09-19T12:03:09;6.17;;;2.47;;
15871;SDS011;8035;51.962;7.162;2023-09-19T12:05:36;7.87;;;2.43;;
15871;SDS011;8035;51.962;7.162;2023-09-19T12:08:05;6.67;;;2.70;;
15871;SDS011;8035;51.962;7.162;2023-09-19T12:10:44;10.07;;;2.60;;
15871;SDS011;8035;51.962;7.162;2023-09-19T12:13:17;7.23;;;2.83;;
15871;SDS011;8035;51.962;7.162;2023-09-19T12:15:43;5.67;;;2.20;;
15871;SDS011;8035;51.962;7.162;2023-09-19T12:20:56;9.20;;;2.37;;
15871;SDS011;8035;51.962;7.162;2023-09-19T12:23:23;8.07;;;2.33;;
15871;SDS011;8035;51.962;7.162;2023-09-19T12:25:50;5.50;;;2.63;;
15871;SDS011;8035;51.962;7.162;2023-09-19T12:28:18;8.17;;;2.20;;
15871;SDS011;8035;51.962;7.162;2023-09-19T12:30:47;5.87;;;2.17;;
15871;SDS011;8035;51.962;7.162;2023-09-19T12:33:17;4.93;;;2.23;;
15871;SDS011;8035;51.962;7.162;2023-09-19T12:35:44;7.37;;;2.60;;
15871;SDS011;8035;51.962;7.162;2023-09-19T12:38:10;5.13;;;2.40;;
15871;SDS011;8035;51.962;7.162;2023-09-19T12:40:37;6.53;;;2.20;;
15871;SDS011;8035;51.962;7.162;2023-09-19T12:43:07;8.73;;;2.47;;
15871;SDS011;8035;51.962;7.162;2023-09-19T12:45:34;6.37;;;2.60;;
15871;SDS011;8035;51.962;7.162;2023-09-19T12:51:01;8.33;;;3.00;;
15871;SDS011;8035;51.962;7.162;2023-09-19T12:53:39;5.27;;;2.20;;
15871;SDS011;8035;51.962;7.162;2023-09-19T12:56:17;6.63;;;2.13;;
15871;SDS011;8035;51.962;7.162;2023-09-19T12:58:53;6.97;;;2.10;;
15871;SDS011;8035;51.962;7.162;2023-09-19T13:01:28;6.27;;;2.07;;
15871;SDS011;8035;51.962;7.162;2023-09-19T13:04:27;5.40;;;2.37;;
15871;SDS011;8035;51.962;7.162;2023-09-19T13:06:54;9.57;;;2.37;;
15871;SDS011;8035;51.962;7.162;2023-09-19T13:09:25;8.00;;;2.33;;
15871;SDS011;8035;51.962;7.162;2023-09-19T13:12:03;7.57;;;2.57;;
15871;SDS011;8035;51.962;7.162;2023-09-19T13:14:30;8.73;;;2.20;;
15871;SDS011;8035;51.962;7.162;2023-09-19T13:19:43;5.67;;;2.23;;
15871;SDS011;8035;51.962;7.162;2023-09-19T13:25:14;5.87;;;2.10;;
15871;SDS011;8035;51.962;7.162;2023-09-19T13:27:43;7.20;;;1.90;;
15871;SDS011;8035;51.962;7.162;2023-09-19T13:30:10;8.27;;;2.20;;
15871;SDS011;8035;51.962;7.162;2023-09-19T13:32:37;9.03;;;2.33;;
15871;SDS011;8035;51.962;7.162;2023-09-19T13:35:03;4.83;;;2.00;;
15871;SDS011;8035;51.962;7.162;2023-09-19T13:37:30;5.23;;;2.30;;
15871;SDS011;8035;51.962;7.162;2023-09-19T13:39:56;13.37;;;2.67;;
15871;SDS011;8035;51.962;7.162;2023-09-19T13:42:23;7.17;;;2.00;;
15871;SDS011;8035;51.962;7.162;2023-09-19T13:44:50;6.73;;;2.37;;
15871;SDS011;8035;51.962;7.162;2023-09-19T13:47:16;5.73;;;2.27;;
15871;SDS011;8035;51.962;7.162;2023-09-19T13:49:49;5.50;;;2.33;;
15871;SDS011;8035;51.962;7.162;2023-09-19T13:52:17;4.30;;;2.00;;
15871;SDS011;8035;51.962;7.162;2023-09-19T13:54:43;7.77;;;2.13;;
15871;SDS011;8035;51.962;7.162;2023-09-19T13:57:09;5.03;;;2.13;;
15871;SDS011;8035;51.962;7.162;2023-09-19T13:59:35;8.23;;;2.00;;
15871;SDS011;8035;51.962;7.162;2023-09-19T14:02:00;5.50;;;1.83;;
15871;SDS011;8035;51.962;7.162;2023-09-19T14:04:28;5.57;;;2.27;;
15871;SDS011;8035;51.962;7.162;2023-09-19T14:06:56;7.97;;;1.80;;
15871;SDS011;8035;51.962;7.162;2023-09-19T14:09:22;2.77;;;1.43;;
15871;SDS011;8035;51.962;7.162;2023-09-19T14:11:49;4.83;;;2.10;;
15871;SDS011;8035;51.962;7.162;2023-09-19T14:14:17;5.30;;;1.67;;
15871;SDS011;8035;51.962;7.162;2023-09-19T14:16:43;4.93;;;1.80;;
15871;SDS011;8035;51.962;7.162;2023-09-19T14:19:09;5.23;;;1.77;;
15871;SDS011;8035;51.962;7.162;2023-09-19T14:21:35;3.97;;;1.63;;
15871;SDS011;8035;51.962;7.162;2023-09-19T14:24:01;1.93;;;1.40;;
15871;SDS011;8035;51.962;7.162;2023-09-19T14:26:27;4.30;;;1.33;;
15871;SDS011;8035;51.962;7.162;2023-09-19T14:28:53;3.33;;;1.50;;
15871;SDS011;8035;51.962;7.162;2023-09-19T14:31:19;4.77;;;1.40;;
15871;SDS011;8035;51.962;7.162;2023-09-19T14:33:44;5.57;;;2.13;;
15871;SDS011;8035;51.962;7.162;2023-09-19T14:36:10;5.37;;;1.80;;
15871;SDS011;8035;51.962;7.162;2023-09-19T14:38:37;3.80;;;1.63;;
15871;SDS011;8035;51.962;7.162;2023-09-19T14:41:04;4.93;;;1.60;;
15871;SDS011;8035;51.962;7.162;2023-09-19T14:43:31;5.07;;;1.50;;
15871;SDS011;8035;51.962;7.162;2023-09-19T14:46:02;5.27;;;1.67;;
15871;SDS011;8035;51.962;7.162;2023-09-19T14:48:28;5.00;;;1.80;;
15871;SDS011;8035;51.962;7.162;2023-09-19T14:50:54;5.03;;;1.50;;
15871;SDS011;8035;51.962;7.162;2023-09-19T14:53:20;4.13;;;1.70;;
15871;SDS011;8035;51.962;7.162;2023-09-19T14:55:46;5.83;;;1.53;;
15871;SDS011;8035;51.962;7.162;2023-09-19T14:58:13;2.87;;;1.13;;
15871;SDS011;8035;51.962;7.162;2023-09-19T15:00:38;5.13;;;1.57;;
15871;SDS011;8035;51.962;7.162;2023-09-19T15:03:04;5.20;;;1.83;;
15871;SDS011;8035;51.962;7.162;2023-09-19T15:05:30;5.07;;;1.77;;
15871;SDS011;8035;51.962;7.162;2023-09-19T15:07:56;3.97;;;1.30;;
15871;SDS011;8035;51.962;7.162;2023-09-19T15:10:23;2.83;;;1.10;;
15871;SDS011;8035;51.962;7.162;2023-09-19T15:12:48;2.40;;;1.30;;
15871;SDS011;8035;51.962;7.162;2023-09-19T15:15:14;4.13;;;1.43;;
15871;SDS011;8035;51.962;7.162;2023-09-19T15:17:40;2.23;;;0.90;;
15871;SDS011;8035;51.962;7.162;2023-09-19T15:20:06;7.13;;;2.07;;
15871;SDS011;8035;51.962;7.162;2023-09-19T15:22:33;3.17;;;1.17;;
15871;SDS011;8035;51.962;7.162;2023-09-19T15:24:59;3.70;;;1.70;;
15871;SDS011;8035;51.962;7.162;2023-09-19T15:27:27;5.33;;;1.20;;
15871;SDS011;8035;51.962;7.162;2023-09-19T15:29:55;3.63;;;1.50;;
15871;SDS011;8035;51.962;7.162;2023-09-19T15:32:20;7.23;;;1.37;;
15871;SDS011;8035;51.962;7.162;2023-09-19T15:34:47;2.30;;;1.23;;
15871;SDS011;8035;51.962;7.162;2023-09-19T15:37:12;7.00;;;1.50;;
15871;SDS011;8035;51.962;7.162;2023-09-19T15:39:38;3.40;;;1.20;;
15871;SDS011;8035;51.962;7.162;2023-09-19T15:42:04;3.87;;;1.17;;
15871;SDS011;8035;51.962;7.162;2023-09-19T15:44:30;1.70;;;1.00;;
15871;SDS011;8035;51.962;7.162;2023-09-19T15:46:56;2.30;;;1.10;;
15871;SDS011;8035;51.962;7.162;2023-09-19T15:49:22;4.30;;;1.43;;
15871;SDS011;8035;51.962;7.162;2023-09-19T15:51:47;4.40;;;1.20;;
15871;SDS011;8035;51.962;7.162;2023-09-19T15:54:14;4.27;;;1.50;;
15871;SDS011;8035;51.962;7.162;2023-09-19T15:56:40;4.07;;;1.37;;
15871;SDS011;8035;51.962;7.162;2023-09-19T15:59:07;5.50;;;1.33;;
15871;SDS011;8035;51.962;7.162;2023-09-19T16:01:34;3.03;;;1.40;;
15871;SDS011;8035;51.962;7.162;2023-09-19T16:04:02;3.90;;;1.23;;